createdAt,value
2018-09-25T00:01:03.481Z,71.90
2018-09-25T00:03:40.148Z,71.50
2018-09-25T00:06:16.515Z,71.70
2018-09-25T00:08:53.195Z,71.70
2018-09-25T00:11:29.968Z,71.70
2018-09-25T00:14:06.847Z,71.70
2018-09-25T00:16:43.401Z,71.90
2018-09-25T00:19:19.952Z,72.00
2018-09-25T00:21:56.529Z,71.70
2018-09-25T00:24:33.142Z,71.90
2018-09-25T00:27:09.878Z,72.30
2018-09-25T00:29:46.687Z,72.10
2018-09-25T00:32:23.312Z,72.60
2018-09-25T00:35:00.197Z,73.00
2018-09-25T00:37:36.640Z,73.00
2018-09-25T00:40:13.248Z,73.40
2018-09-25T00:42:50.037Z,73.80
2018-09-25T00:45:26.881Z,73.90
2018-09-25T00:48:03.545Z,74.10
2018-09-25T00:50:40.253Z,74.10
2018-09-25T00:53:17.034Z,74.20
2018-09-25T00:55:53.828Z,74.30
2018-09-25T00:58:30.729Z,74.20
2018-09-25T01:01:07.470Z,74.10
2018-09-25T01:03:44.114Z,74.30
2018-09-25T01:06:20.998Z,74.60
2018-09-25T01:08:57.920Z,75.00
2018-09-25T01:11:34.801Z,75.50
2018-09-25T01:14:11.794Z,75.40
2018-09-25T01:16:48.653Z,75.00
2018-09-25T01:19:25.552Z,74.30
2018-09-25T01:22:02.461Z,74.20
2018-09-25T01:24:39.254Z,73.60
2018-09-25T01:27:16.138Z,73.70
2018-09-25T01:29:52.880Z,73.00
2018-09-25T01:32:29.401Z,72.80
2018-09-25T01:35:05.887Z,73.40
2018-09-25T01:37:42.299Z,74.20
2018-09-25T01:40:18.989Z,74.40
2018-09-25T01:42:55.597Z,75.10
2018-09-25T01:45:36.069Z,75.60
2018-09-25T01:48:12.136Z,75.20
2018-09-25T01:50:48.808Z,75.30
2018-09-25T01:53:25.458Z,75.30
2018-09-25T01:56:01.850Z,75.70
2018-09-25T01:58:38.714Z,75.80
2018-09-25T02:01:15.615Z,76.10
2018-09-25T02:03:52.272Z,76.30
2018-09-25T02:06:29.043Z,76.50
2018-09-25T02:09:05.601Z,76.70
2018-09-25T02:11:42.048Z,76.80
2018-09-25T02:14:18.978Z,77.00
2018-09-25T02:16:55.604Z,77.10
2018-09-25T02:19:32.434Z,77.20
2018-09-25T02:22:09.049Z,77.40
2018-09-25T02:24:45.555Z,77.50
2018-09-25T02:27:22.304Z,77.40
2018-09-25T02:29:59.065Z,77.60
2018-09-25T02:32:35.886Z,78.00
2018-09-25T02:35:12.854Z,78.00
2018-09-25T02:37:49.438Z,78.60
2018-09-25T02:40:26.284Z,78.30
2018-09-25T02:43:02.941Z,78.80
2018-09-25T02:45:39.361Z,78.20
2018-09-25T02:48:15.777Z,78.10
2018-09-25T02:50:52.314Z,78.20
2018-09-25T02:53:29.153Z,78.20
2018-09-25T02:56:05.693Z,78.50
2018-09-25T02:58:42.453Z,78.40
2018-09-25T03:01:18.952Z,77.50
2018-09-25T03:03:55.566Z,76.90
2018-09-25T03:06:32.057Z,76.10
2018-09-25T03:09:08.717Z,75.70
2018-09-25T03:11:45.379Z,75.90
2018-09-25T03:14:21.947Z,76.10
2018-09-25T03:16:58.545Z,76.50
2018-09-25T03:19:35.402Z,76.60
2018-09-25T03:22:11.871Z,77.10
2018-09-25T03:24:48.569Z,77.00
2018-09-25T03:27:25.183Z,78.10
2018-09-25T03:30:01.885Z,77.40
2018-09-25T03:32:38.556Z,78.10
2018-09-25T03:35:15.487Z,78.00
2018-09-25T03:37:52.206Z,77.70
2018-09-25T03:40:29.123Z,77.80
2018-09-25T03:43:05.909Z,78.00
2018-09-25T03:45:42.751Z,78.00
2018-09-25T03:48:19.495Z,78.00
2018-09-25T03:50:56.150Z,78.10
2018-09-25T03:53:32.888Z,78.20
2018-09-25T03:56:09.557Z,78.30
2018-09-25T03:58:46.049Z,79.00
2018-09-25T04:01:22.682Z,79.00
2018-09-25T04:03:59.313Z,78.80
2018-09-25T04:06:36.035Z,79.00
2018-09-25T04:09:14.118Z,79.10
2018-09-25T04:11:50.948Z,79.20
2018-09-25T04:14:27.561Z,79.30
2018-09-25T04:17:04.022Z,79.30
2018-09-25T04:19:40.748Z,79.40
2018-09-25T04:22:17.353Z,79.70
2018-09-25T04:24:53.950Z,79.90
2018-09-25T04:27:37.537Z,78.90
2018-09-25T04:30:14.354Z,76.80
2018-09-25T04:32:51.058Z,76.00
2018-09-25T04:35:27.725Z,75.60
2018-09-25T04:38:04.355Z,74.80
2018-09-25T04:40:40.987Z,74.50
2018-09-25T04:43:17.671Z,74.40
2018-09-25T04:45:54.222Z,73.80
2018-09-25T04:48:30.859Z,73.10
2018-09-25T04:51:07.570Z,73.70
2018-09-25T04:53:44.234Z,75.20
2018-09-25T04:56:20.926Z,75.30
2018-09-25T04:58:57.534Z,75.40
2018-09-25T05:01:34.119Z,76.00
2018-09-25T05:04:10.712Z,76.50
2018-09-25T05:06:47.209Z,77.00
2018-09-25T05:09:23.825Z,77.40
2018-09-25T05:12:00.591Z,77.80
2018-09-25T05:14:37.441Z,78.20
2018-09-25T05:17:14.434Z,78.40
2018-09-25T05:19:51.382Z,78.60
2018-09-25T05:22:28.116Z,78.80
2018-09-25T05:25:04.759Z,78.90
2018-09-25T05:27:41.479Z,79.00
2018-09-25T05:30:18.041Z,79.20
2018-09-25T05:32:54.621Z,79.50
2018-09-25T05:35:31.363Z,79.90
2018-09-25T05:38:08.025Z,80.50
2018-09-25T05:40:44.645Z,79.80
2018-09-25T05:43:21.530Z,78.30
2018-09-25T05:45:58.272Z,77.20
2018-09-25T05:48:34.977Z,77.20
2018-09-25T05:51:11.734Z,77.50
2018-09-25T05:53:48.400Z,77.40
2018-09-25T05:56:24.933Z,77.20
2018-09-25T05:59:01.578Z,78.10
2018-09-25T06:01:38.165Z,77.20
2018-09-25T06:04:14.762Z,77.70
2018-09-25T06:06:51.468Z,78.10
2018-09-25T06:09:28.267Z,77.90
2018-09-25T06:12:04.921Z,77.60
2018-09-25T06:14:41.485Z,77.70
2018-09-25T06:17:18.074Z,77.30
2018-09-25T06:19:54.887Z,77.10
2018-09-25T06:22:31.562Z,77.70
2018-09-25T06:25:08.390Z,77.80
2018-09-25T06:27:45.142Z,78.20
2018-09-25T06:30:21.851Z,78.50
2018-09-25T06:32:58.589Z,78.40
2018-09-25T06:35:35.273Z,78.10
2018-09-25T06:38:12.082Z,78.00
2018-09-25T06:40:48.801Z,78.10
2018-09-25T06:43:25.501Z,78.90
2018-09-25T06:46:02.138Z,79.60
2018-09-25T06:48:38.885Z,79.60
2018-09-25T06:51:15.584Z,79.60
2018-09-25T06:53:52.032Z,79.10
2018-09-25T06:56:28.642Z,78.20
2018-09-25T06:59:05.218Z,77.80
2018-09-25T07:01:41.901Z,77.40
2018-09-25T07:04:18.494Z,76.40
2018-09-25T07:06:55.057Z,75.90
2018-09-25T07:09:31.641Z,75.20
2018-09-25T07:12:08.110Z,75.00
2018-09-25T07:14:44.606Z,74.70
2018-09-25T07:17:21.261Z,74.70
2018-09-25T07:19:57.784Z,74.20
2018-09-25T07:22:34.556Z,73.90
2018-09-25T07:25:11.355Z,73.90
2018-09-25T07:27:47.930Z,73.30
2018-09-25T07:30:24.594Z,73.50
2018-09-25T07:33:01.225Z,74.20
2018-09-25T07:35:37.930Z,75.30
2018-09-25T07:38:14.813Z,75.40
2018-09-25T07:40:51.505Z,75.20
2018-09-25T07:43:28.214Z,74.70
2018-09-25T07:46:05.058Z,74.00
2018-09-25T07:48:41.638Z,73.30
2018-09-25T07:51:18.340Z,71.20
2018-09-25T07:53:55.023Z,70.90
2018-09-25T07:56:31.673Z,70.60
2018-09-25T07:59:08.107Z,70.40
2018-09-25T08:01:44.743Z,69.80
2018-09-25T08:04:21.486Z,69.80
2018-09-25T08:06:58.168Z,69.40
2018-09-25T08:09:34.792Z,69.00
2018-09-25T08:12:12.532Z,68.70
2018-09-25T08:14:49.338Z,67.60
2018-09-25T08:17:25.877Z,66.70
2018-09-25T08:20:05.502Z,66.60
2018-09-25T08:22:45.525Z,65.40
2018-09-25T08:25:29.790Z,65.00
2018-09-25T08:28:11.724Z,63.50
2018-09-25T08:30:52.350Z,62.00
2018-09-25T08:33:32.748Z,60.30
2018-09-25T08:36:10.672Z,59.60
2018-09-25T08:38:47.448Z,59.50
2018-09-25T08:41:23.864Z,58.90
2018-09-25T08:44:00.582Z,59.00
2018-09-25T08:46:37.127Z,58.50
2018-09-25T08:49:14.262Z,57.10
2018-09-25T08:51:50.876Z,54.60
2018-09-25T08:54:27.594Z,54.30
2018-09-25T08:57:03.957Z,53.50
2018-09-25T08:59:40.375Z,53.60
2018-09-25T09:02:16.742Z,53.50
2018-09-25T09:04:53.387Z,53.20
2018-09-25T09:07:29.870Z,51.90
2018-09-25T09:10:06.561Z,51.50
2018-09-25T09:12:43.306Z,49.60
2018-09-25T09:15:20.117Z,50.00
2018-09-25T09:17:56.882Z,50.00
2018-09-25T09:20:33.622Z,49.50
2018-09-25T09:23:10.208Z,46.90
2018-09-25T09:25:46.951Z,46.40
2018-09-25T09:28:23.250Z,46.30
2018-09-25T09:30:59.932Z,45.40
2018-09-25T09:33:36.670Z,46.50
2018-09-25T09:36:13.477Z,47.50
2018-09-25T09:38:50.046Z,46.40
2018-09-25T09:41:26.776Z,47.00
2018-09-25T09:44:03.388Z,45.50
2018-09-25T09:46:39.945Z,45.90
2018-09-25T09:49:16.387Z,45.40
2018-09-25T09:51:52.991Z,45.30
2018-09-25T09:54:29.615Z,45.50
2018-09-25T09:57:06.254Z,46.30
2018-09-25T09:59:42.839Z,46.80
2018-09-25T10:02:19.604Z,46.90
2018-09-25T10:04:56.226Z,47.30
2018-09-25T10:07:32.811Z,45.50
2018-09-25T10:10:09.356Z,44.20
2018-09-25T10:12:45.971Z,45.70
2018-09-25T10:15:22.510Z,46.80
2018-09-25T10:17:59.114Z,46.90
2018-09-25T10:20:35.709Z,46.20
2018-09-25T10:23:12.483Z,41.70
2018-09-25T10:25:49.149Z,41.30
2018-09-25T10:28:25.789Z,41.90
2018-09-25T10:31:02.418Z,41.20
2018-09-25T10:33:39.167Z,39.30
2018-09-25T10:36:16.056Z,39.90
2018-09-25T10:38:52.897Z,41.50
2018-09-25T10:41:29.870Z,39.00
2018-09-25T10:44:06.577Z,38.00
2018-09-25T10:46:43.264Z,39.70
2018-09-25T10:49:19.904Z,39.10
2018-09-25T10:51:56.616Z,38.30
2018-09-25T10:54:33.087Z,37.90
2018-09-25T10:57:09.722Z,37.50
2018-09-25T10:59:46.538Z,38.10
2018-09-25T11:02:23.353Z,37.30
2018-09-25T11:05:00.026Z,38.50
2018-09-25T11:07:36.688Z,38.90
2018-09-25T11:10:13.090Z,39.20
2018-09-25T11:12:49.709Z,40.80
2018-09-25T11:15:26.285Z,41.00
2018-09-25T11:18:03.101Z,41.90
2018-09-25T11:20:39.810Z,41.50
2018-09-25T11:23:16.428Z,42.40
2018-09-25T11:25:53.066Z,41.80
2018-09-25T11:28:29.789Z,42.40
2018-09-25T11:31:06.473Z,42.10
2018-09-25T11:33:43.059Z,42.60
2018-09-25T11:36:19.830Z,42.80
2018-09-25T11:38:56.387Z,41.10
2018-09-25T11:41:33.016Z,38.10
2018-09-25T11:44:09.900Z,38.90
2018-09-25T11:46:46.757Z,38.10
2018-09-25T11:49:23.426Z,37.80
2018-09-25T11:51:59.924Z,37.90
2018-09-25T11:54:36.605Z,37.10
2018-09-25T11:57:13.449Z,34.40
2018-09-25T11:59:50.014Z,35.50
2018-09-25T12:02:26.657Z,36.70
2018-09-25T12:05:03.118Z,36.00
2018-09-25T12:07:39.890Z,35.40
2018-09-25T12:10:16.522Z,35.50
2018-09-25T12:12:53.141Z,32.20
2018-09-25T12:15:29.845Z,32.60
2018-09-25T12:18:06.395Z,34.00
2018-09-25T12:20:43.027Z,33.60
2018-09-25T12:23:19.670Z,30.80
2018-09-25T12:25:56.404Z,30.80
2018-09-25T12:28:33.077Z,31.90
2018-09-25T12:31:09.994Z,31.80
2018-09-25T12:33:46.957Z,32.70
2018-09-25T12:36:23.471Z,32.30
2018-09-25T12:39:00.090Z,30.60
2018-09-25T12:41:36.806Z,31.90
2018-09-25T12:44:13.399Z,32.20
2018-09-25T12:46:50.111Z,32.60
2018-09-25T12:49:26.557Z,30.60
2018-09-25T12:52:03.118Z,31.10
2018-09-25T12:54:39.776Z,32.10
2018-09-25T12:57:16.446Z,32.00
2018-09-25T12:59:53.252Z,31.00
2018-09-25T13:02:29.797Z,29.40
2018-09-25T13:05:06.522Z,29.90
2018-09-25T13:07:43.115Z,30.70
2018-09-25T13:10:19.773Z,29.20
2018-09-25T13:12:56.340Z,30.10
2018-09-25T13:15:32.945Z,29.00
2018-09-25T13:18:09.498Z,29.40
2018-09-25T13:20:46.345Z,30.30
2018-09-25T13:23:23.202Z,30.00
2018-09-25T13:25:59.913Z,30.00
2018-09-25T13:28:36.762Z,30.90
2018-09-25T13:31:13.743Z,30.70
2018-09-25T13:33:50.417Z,30.50
2018-09-25T13:36:27.191Z,29.90
2018-09-25T13:39:03.802Z,29.80
2018-09-25T13:41:40.648Z,30.40
2018-09-25T13:44:17.271Z,29.70
2018-09-25T13:46:54.010Z,29.30
2018-09-25T13:49:30.777Z,28.90
2018-09-25T13:52:22.971Z,30.00
2018-09-25T13:55:01.301Z,30.60
2018-09-25T13:57:37.889Z,30.90
2018-09-25T14:00:14.874Z,30.40
2018-09-25T14:02:51.548Z,29.40
2018-09-25T14:05:28.038Z,29.90
2018-09-25T14:08:04.648Z,30.70
2018-09-25T14:10:41.402Z,30.90
2018-09-25T14:13:18.087Z,31.50
2018-09-25T14:15:54.705Z,31.40
2018-09-25T14:18:31.416Z,29.90
2018-09-25T14:21:08.162Z,30.60
2018-09-25T14:23:44.818Z,29.70
2018-09-25T14:26:21.457Z,31.20
2018-09-25T14:28:58.073Z,32.40
2018-09-25T14:31:34.817Z,31.30
2018-09-25T14:34:11.614Z,32.20
2018-09-25T14:36:48.342Z,32.50
2018-09-25T14:39:24.865Z,33.00
2018-09-25T14:42:02.882Z,30.80
2018-09-25T14:44:39.536Z,32.00
2018-09-25T14:47:16.155Z,32.30
2018-09-25T14:49:52.817Z,33.20
2018-09-25T14:52:29.661Z,32.40
2018-09-25T14:55:06.429Z,34.10
2018-09-25T14:57:42.851Z,33.30
2018-09-25T15:00:19.707Z,33.90
2018-09-25T15:02:56.397Z,34.40
2018-09-25T15:05:33.185Z,35.00
2018-09-25T15:08:09.902Z,35.10
2018-09-25T15:10:46.796Z,34.60
2018-09-25T15:13:23.601Z,35.30
2018-09-25T15:16:00.317Z,35.50
2018-09-25T15:18:37.046Z,35.80
2018-09-25T15:21:13.788Z,35.60
2018-09-25T15:23:50.366Z,35.50
2018-09-25T15:26:26.782Z,34.60
2018-09-25T15:29:03.441Z,35.90
2018-09-25T15:31:40.361Z,35.00
2018-09-25T15:34:17.025Z,35.70
2018-09-25T15:36:53.692Z,35.70
2018-09-25T15:39:30.298Z,35.10
2018-09-25T15:42:06.901Z,36.00
2018-09-25T15:44:43.785Z,36.70
2018-09-25T15:47:20.572Z,36.80
2018-09-25T15:49:57.344Z,37.00
2018-09-25T15:52:34.109Z,36.60
2018-09-25T15:55:10.994Z,36.20
2018-09-25T15:57:47.761Z,36.20
2018-09-25T16:00:24.511Z,36.00
2018-09-25T16:03:01.042Z,37.30
2018-09-25T16:05:37.652Z,37.80
2018-09-25T16:08:14.371Z,37.90
2018-09-25T16:10:51.018Z,38.10
2018-09-25T16:13:27.652Z,38.40
2018-09-25T16:16:04.290Z,39.20
2018-09-25T16:18:40.902Z,38.50
2018-09-25T16:21:17.573Z,38.50
2018-09-25T16:23:54.142Z,38.90
2018-09-25T16:26:30.871Z,39.60
2018-09-25T16:29:07.524Z,39.40
2018-09-25T16:31:44.105Z,40.10
2018-09-25T16:34:20.748Z,40.40
2018-09-25T16:36:57.462Z,40.40
2018-09-25T16:39:34.102Z,40.00
2018-09-25T16:42:10.819Z,39.60
2018-09-25T16:44:47.600Z,39.90
2018-09-25T16:47:24.328Z,42.20
2018-09-25T16:50:01.118Z,43.70
2018-09-25T16:52:37.703Z,43.90
2018-09-25T16:55:14.324Z,44.40
2018-09-25T16:57:51.077Z,45.10
2018-09-25T17:00:27.629Z,44.90
2018-09-25T17:03:04.134Z,45.30
2018-09-25T17:05:40.757Z,46.20
2018-09-25T17:08:17.489Z,46.40
2018-09-25T17:10:54.085Z,46.20
2018-09-25T17:13:30.732Z,45.70
2018-09-25T17:16:07.461Z,45.30
2018-09-25T17:18:44.045Z,44.80
2018-09-25T17:21:20.542Z,44.80
2018-09-25T17:23:57.511Z,44.40
2018-09-25T17:26:34.167Z,44.50
2018-09-25T17:29:10.806Z,44.90
2018-09-25T17:31:47.649Z,45.60
2018-09-25T17:34:26.770Z,46.30
2018-09-25T17:37:03.392Z,47.10
2018-09-25T17:39:40.117Z,47.50
2018-09-25T17:42:16.744Z,49.00
2018-09-25T17:44:53.348Z,50.10
2018-09-25T17:47:29.917Z,50.10
2018-09-25T17:50:26.036Z,49.80
2018-09-25T17:53:23.758Z,50.00
2018-09-25T17:56:18.629Z,49.70
2018-09-25T17:59:05.694Z,50.00
2018-09-25T18:01:42.200Z,50.50
2018-09-25T18:04:18.748Z,51.30
2018-09-25T18:06:55.287Z,53.20
2018-09-25T18:09:31.929Z,53.70
2018-09-25T18:12:08.448Z,53.10
2018-09-25T18:14:45.034Z,53.20
2018-09-25T18:17:21.675Z,53.40
2018-09-25T18:19:58.593Z,53.70
2018-09-25T18:22:35.007Z,53.40
2018-09-25T18:25:11.918Z,53.40
2018-09-25T18:27:48.744Z,53.70
2018-09-25T18:30:25.450Z,53.70
2018-09-25T18:33:02.043Z,53.90
2018-09-25T18:35:38.502Z,55.00
2018-09-25T18:38:15.043Z,55.50
2018-09-25T18:40:51.723Z,55.70
2018-09-25T18:43:28.365Z,56.00
2018-09-25T18:46:05.138Z,56.20
2018-09-25T18:48:41.884Z,55.70
2018-09-25T18:51:18.340Z,55.80
2018-09-25T18:53:54.957Z,56.10
2018-09-25T18:56:31.800Z,56.20
2018-09-25T18:59:08.637Z,57.20
2018-09-25T19:01:45.306Z,57.30
2018-09-25T19:04:22.094Z,57.30
2018-09-25T19:06:58.870Z,57.40
2018-09-25T19:09:35.569Z,57.50
2018-09-25T19:12:12.404Z,57.60
2018-09-25T19:14:48.929Z,58.00
2018-09-25T19:17:25.566Z,58.50
2018-09-25T19:20:02.153Z,58.30
2018-09-25T19:22:38.807Z,58.70
2018-09-25T19:25:15.806Z,58.70
2018-09-25T19:27:52.571Z,59.00
2018-09-25T19:30:29.037Z,58.90
2018-09-25T19:33:05.696Z,59.00
2018-09-25T19:35:42.229Z,59.10
2018-09-25T19:38:18.954Z,59.20
2018-09-25T19:40:55.473Z,60.00
2018-09-25T19:43:32.242Z,59.10
2018-09-25T19:46:09.135Z,59.00
2018-09-25T19:48:45.890Z,58.60
2018-09-25T19:51:22.510Z,59.00
2018-09-25T19:53:59.199Z,59.00
2018-09-25T19:56:36.088Z,59.90
2018-09-25T19:59:12.774Z,59.80
2018-09-25T20:01:49.514Z,59.50
2018-09-25T20:04:26.134Z,60.30
2018-09-25T20:07:02.923Z,59.30
2018-09-25T20:09:39.636Z,59.50
2018-09-25T20:12:16.226Z,60.30
2018-09-25T20:14:52.846Z,60.90
2018-09-25T20:17:29.324Z,61.60
2018-09-25T20:20:05.847Z,62.30
2018-09-25T20:22:42.553Z,63.00
2018-09-25T20:25:19.125Z,63.60
2018-09-25T20:27:55.787Z,64.00
2018-09-25T20:30:32.561Z,64.40
2018-09-25T20:33:09.246Z,64.60
2018-09-25T20:35:45.982Z,64.90
2018-09-25T20:38:22.544Z,65.10
2018-09-25T20:40:59.038Z,65.20
2018-09-25T20:43:35.711Z,65.30
2018-09-25T20:46:12.370Z,65.60
2018-09-25T20:48:48.933Z,65.70
2018-09-25T20:51:25.482Z,65.40
2018-09-25T20:54:02.183Z,65.10
2018-09-25T20:56:38.583Z,65.20
2018-09-25T20:59:15.113Z,65.50
2018-09-25T21:01:51.656Z,65.60
2018-09-25T21:04:28.296Z,66.30
2018-09-25T21:07:04.688Z,66.80
2018-09-25T21:09:41.199Z,67.30
2018-09-25T21:12:17.721Z,67.30
2018-09-25T21:14:54.558Z,66.90
2018-09-25T21:17:31.248Z,66.80
2018-09-25T21:20:07.937Z,66.40
2018-09-25T21:22:44.705Z,66.50
2018-09-25T21:25:21.374Z,66.10
2018-09-25T21:27:57.911Z,66.10
2018-09-25T21:30:34.569Z,66.30
2018-09-25T21:33:11.121Z,66.60
2018-09-25T21:35:47.771Z,67.50
2018-09-25T21:38:24.160Z,68.10
2018-09-25T21:41:00.782Z,68.70
2018-09-25T21:43:37.289Z,68.70
2018-09-25T21:46:14.104Z,68.80
2018-09-25T21:48:50.941Z,68.80
2018-09-25T21:51:27.912Z,68.70
2018-09-25T21:54:04.449Z,68.60
2018-09-25T21:56:46.220Z,68.50
2018-09-25T21:59:22.829Z,68.70
2018-09-25T22:01:59.361Z,68.90
2018-09-25T22:04:35.957Z,68.90
2018-09-25T22:07:12.664Z,69.00
2018-09-25T22:09:49.162Z,68.90
2018-09-25T22:12:25.774Z,69.00
2018-09-25T22:15:02.319Z,69.50
2018-09-25T22:17:39.157Z,70.00
2018-09-25T22:20:15.878Z,70.10
2018-09-25T22:22:52.857Z,70.00
2018-09-25T22:25:29.727Z,69.70
2018-09-25T22:28:06.642Z,70.20
2018-09-25T22:30:43.406Z,70.60
2018-09-25T22:33:20.118Z,70.40
2018-09-25T22:35:56.830Z,70.50
2018-09-25T22:38:33.472Z,70.60
2018-09-25T22:41:10.010Z,70.50
2018-09-25T22:43:46.435Z,70.30
2018-09-25T22:46:23.076Z,70.60
2018-09-25T22:48:59.886Z,70.90
2018-09-25T22:51:36.525Z,71.10
2018-09-25T22:54:13.490Z,71.20
2018-09-25T22:56:50.150Z,71.30
2018-09-25T22:59:26.685Z,71.70
2018-09-25T23:02:03.426Z,71.80
2018-09-25T23:04:40.100Z,71.80
2018-09-25T23:07:16.784Z,71.90
2018-09-25T23:09:53.476Z,71.70
2018-09-25T23:12:30.165Z,71.40
2018-09-25T23:15:06.986Z,71.40
2018-09-25T23:17:43.817Z,71.40
2018-09-25T23:20:20.638Z,71.10
2018-09-25T23:22:57.494Z,71.20
2018-09-25T23:25:34.037Z,71.30
2018-09-25T23:28:10.680Z,71.30
2018-09-25T23:30:47.173Z,71.40
2018-09-25T23:33:23.853Z,71.60
2018-09-25T23:36:00.477Z,71.50
2018-09-25T23:38:37.035Z,71.40
2018-09-25T23:41:43.553Z,71.50
2018-09-25T23:44:20.411Z,71.50
2018-09-25T23:47:28.543Z,71.50
2018-09-25T23:52:13.185Z,71.90
2018-09-25T23:55:47.752Z,71.40
2018-09-25T23:58:25.858Z,71.30
